sensor_id;sensor_type;location;lat;lon;timestamp;pressure;altitude;pressure_sealevel;temperature;humidity
20825;BME280;10573;50.936;6.978;2023-07-29T00:01:47;100382.44;;;21.42;76.90
20825;BME280;10573;50.936;6.978;2023-07-29T00:04:14;100390.44;;;21.51;76.77
20825;BME280;10573;50.936;6.978;2023-07-29T00:06:39;100374.72;;;21.44;77.17
20825;BME280;10573;50.936;6.978;2023-07-29T00:09:05;100371.28;;;21.49;77.19
20825;BME280;10573;50.936;6.978;2023-07-29T00:11:31;100370.41;;;21.55;77.09
20825;BME280;10573;50.936;6.978;2023-07-29T00:13:59;100361.91;;;21.50;77.71
20825;BME280;10573;50.936;6.978;2023-07-29T00:16:25;100363.38;;;21.53;77.36
20825;BME280;10573;50.936;6.978;2023-07-29T00:18:51;100362.72;;;21.51;77.70
20825;BME280;10573;50.936;6.978;2023-07-29T00:21:16;100350.25;;;21.41;78.10
20825;BME280;10573;50.936;6.978;2023-07-29T00:23:42;100348.34;;;21.42;78.14
20825;BME280;10573;50.936;6.978;2023-07-29T00:26:07;100355.53;;;21.43;78.85
20825;BME280;10573;50.936;6.978;2023-07-29T00:28:32;100352.84;;;21.36;79.28
20825;BME280;10573;50.936;6.978;2023-07-29T00:30:58;100355.66;;;21.29;80.14
20825;BME280;10573;50.936;6.978;2023-07-29T00:33:23;100357.38;;;21.31;80.27
20825;BME280;10573;50.936;6.978;2023-07-29T00:35:48;100361.66;;;21.26;80.60
20825;BME280;10573;50.936;6.978;2023-07-29T00:38:14;100358.94;;;21.20;81.31
20825;BME280;10573;50.936;6.978;2023-07-29T00:40:39;100368.00;;;21.08;82.00
20825;BME280;10573;50.936;6.978;2023-07-29T00:43:05;100360.13;;;21.05;82.40
20825;BME280;10573;50.936;6.978;2023-07-29T00:45:32;100352.84;;;21.11;82.24
20825;BME280;10573;50.936;6.978;2023-07-29T00:47:58;100340.91;;;21.10;82.84
20825;BME280;10573;50.936;6.978;2023-07-29T00:50:24;100355.81;;;21.09;83.14
20825;BME280;10573;50.936;6.978;2023-07-29T00:52:50;100355.41;;;21.12;82.94
20825;BME280;10573;50.936;6.978;2023-07-29T00:55:15;100351.69;;;20.93;83.40
20825;BME280;10573;50.936;6.978;2023-07-29T00:57:41;100355.03;;;21.02;83.55
20825;BME280;10573;50.936;6.978;2023-07-29T01:00:15;100346.44;;;21.10;83.09
20825;BME280;10573;50.936;6.978;2023-07-29T01:02:42;100337.53;;;21.08;83.48
20825;BME280;10573;50.936;6.978;2023-07-29T01:05:08;100335.41;;;21.04;83.92
20825;BME280;10573;50.936;6.978;2023-07-29T01:07:59;100335.00;;;21.00;83.64
20825;BME280;10573;50.936;6.978;2023-07-29T01:10:43;100342.81;;;20.85;84.57
20825;BME280;10573;50.936;6.978;2023-07-29T01:13:23;100337.72;;;20.82;84.53
20825;BME280;10573;50.936;6.978;2023-07-29T01:16:01;100326.09;;;20.98;84.42
20825;BME280;10573;50.936;6.978;2023-07-29T01:18:31;100321.03;;;20.95;84.62
20825;BME280;10573;50.936;6.978;2023-07-29T01:21:03;100319.72;;;20.98;84.78
20825;BME280;10573;50.936;6.978;2023-07-29T01:23:30;100305.66;;;20.99;84.71
20825;BME280;10573;50.936;6.978;2023-07-29T01:25:56;100315.84;;;20.99;84.65
20825;BME280;10573;50.936;6.978;2023-07-29T01:28:21;100318.03;;;20.97;84.53
20825;BME280;10573;50.936;6.978;2023-07-29T01:30:49;100314.38;;;20.96;84.98
20825;BME280;10573;50.936;6.978;2023-07-29T01:33:20;100318.25;;;20.95;85.06
20825;BME280;10573;50.936;6.978;2023-07-29T01:38:21;100310.03;;;21.07;85.21
20825;BME280;10573;50.936;6.978;2023-07-29T01:40:50;100313.09;;;20.99;85.40
20825;BME280;10573;50.936;6.978;2023-07-29T01:43:16;100321.06;;;20.88;85.88
20825;BME280;10573;50.936;6.978;2023-07-29T01:45:44;100315.91;;;20.92;86.19
20825;BME280;10573;50.936;6.978;2023-07-29T01:48:09;100311.72;;;20.83;86.66
20825;BME280;10573;50.936;6.978;2023-07-29T01:50:34;100310.00;;;20.88;86.62
20825;BME280;10573;50.936;6.978;2023-07-29T01:53:00;100306.72;;;20.98;86.10
20825;BME280;10573;50.936;6.978;2023-07-29T01:55:25;100305.25;;;20.95;86.63
20825;BME280;10573;50.936;6.978;2023-07-29T01:57:50;100308.00;;;20.95;86.11
20825;BME280;10573;50.936;6.978;2023-07-29T02:00:18;100304.66;;;20.87;85.41
20825;BME280;10573;50.936;6.978;2023-07-29T02:02:43;100327.16;;;20.97;85.48
20825;BME280;10573;50.936;6.978;2023-07-29T02:05:08;100343.06;;;20.76;86.49
20825;BME280;10573;50.936;6.978;2023-07-29T02:07:34;100337.69;;;20.88;87.52
20825;BME280;10573;50.936;6.978;2023-07-29T02:09:59;100320.25;;;20.81;88.45
20825;BME280;10573;50.936;6.978;2023-07-29T02:12:25;100320.66;;;20.85;88.83
20825;BME280;10573;50.936;6.978;2023-07-29T02:14:50;100307.28;;;20.82;88.92
20825;BME280;10573;50.936;6.978;2023-07-29T02:17:16;100300.50;;;20.77;88.50
20825;BME280;10573;50.936;6.978;2023-07-29T02:19:41;100305.34;;;20.82;88.75
20825;BME280;10573;50.936;6.978;2023-07-29T02:22:07;100304.94;;;20.78;88.07
20825;BME280;10573;50.936;6.978;2023-07-29T02:24:32;100311.34;;;20.79;87.75
20825;BME280;10573;50.936;6.978;2023-07-29T02:26:57;100310.41;;;20.53;84.62
20825;BME280;10573;50.936;6.978;2023-07-29T02:29:23;100305.53;;;20.49;84.41
20825;BME280;10573;50.936;6.978;2023-07-29T02:31:50;100294.00;;;20.52;84.11
20825;BME280;10573;50.936;6.978;2023-07-29T02:34:15;100279.94;;;20.60;84.12
20825;BME280;10573;50.936;6.978;2023-07-29T02:36:40;100285.88;;;20.57;85.99
20825;BME280;10573;50.936;6.978;2023-07-29T02:39:06;100287.81;;;20.56;85.90
20825;BME280;10573;50.936;6.978;2023-07-29T02:41:31;100285.22;;;20.61;85.84
20825;BME280;10573;50.936;6.978;2023-07-29T02:43:56;100305.00;;;20.65;85.92
20825;BME280;10573;50.936;6.978;2023-07-29T02:46:22;100314.47;;;20.51;85.70
20825;BME280;10573;50.936;6.978;2023-07-29T02:48:47;100312.72;;;20.56;84.54
20825;BME280;10573;50.936;6.978;2023-07-29T02:51:13;100311.91;;;20.49;84.71
20825;BME280;10573;50.936;6.978;2023-07-29T02:53:38;100313.59;;;20.50;84.70
20825;BME280;10573;50.936;6.978;2023-07-29T02:56:04;100317.84;;;20.53;84.71
20825;BME280;10573;50.936;6.978;2023-07-29T02:58:29;100312.50;;;20.58;84.93
20825;BME280;10573;50.936;6.978;2023-07-29T03:01:02;100299.91;;;20.62;84.94
20825;BME280;10573;50.936;6.978;2023-07-29T03:03:29;100304.59;;;20.61;85.11
20825;BME280;10573;50.936;6.978;2023-07-29T03:06:02;100303.75;;;20.61;85.41
20825;BME280;10573;50.936;6.978;2023-07-29T03:08:28;100306.78;;;20.53;85.77
20825;BME280;10573;50.936;6.978;2023-07-29T03:10:54;100310.59;;;20.52;85.76
20825;BME280;10573;50.936;6.978;2023-07-29T03:13:20;100305.06;;;20.52;85.70
20825;BME280;10573;50.936;6.978;2023-07-29T03:15:45;100298.47;;;20.53;85.18
20825;BME280;10573;50.936;6.978;2023-07-29T03:18:11;100291.88;;;20.54;84.90
20825;BME280;10573;50.936;6.978;2023-07-29T03:20:36;100295.66;;;20.59;84.15
20825;BME280;10573;50.936;6.978;2023-07-29T03:23:01;100300.38;;;20.59;83.93
20825;BME280;10573;50.936;6.978;2023-07-29T03:25:28;100299.13;;;20.55;83.74
20825;BME280;10573;50.936;6.978;2023-07-29T03:27:54;100300.44;;;20.45;83.73
20825;BME280;10573;50.936;6.978;2023-07-29T03:30:20;100296.94;;;20.57;83.21
20825;BME280;10573;50.936;6.978;2023-07-29T03:32:47;100292.47;;;20.56;82.87
20825;BME280;10573;50.936;6.978;2023-07-29T03:35:12;100296.53;;;20.60;82.40
20825;BME280;10573;50.936;6.978;2023-07-29T03:37:38;100294.41;;;20.55;82.97
20825;BME280;10573;50.936;6.978;2023-07-29T03:40:05;100293.56;;;20.55;82.52
20825;BME280;10573;50.936;6.978;2023-07-29T03:42:31;100304.66;;;20.55;82.97
20825;BME280;10573;50.936;6.978;2023-07-29T03:44:56;100292.31;;;20.51;82.96
20825;BME280;10573;50.936;6.978;2023-07-29T03:47:21;100296.94;;;20.57;82.92
20825;BME280;10573;50.936;6.978;2023-07-29T03:49:47;100292.28;;;20.57;83.23
20825;BME280;10573;50.936;6.978;2023-07-29T03:52:12;100296.94;;;20.57;83.47
20825;BME280;10573;50.936;6.978;2023-07-29T03:54:38;100295.25;;;20.56;83.56
20825;BME280;10573;50.936;6.978;2023-07-29T03:57:03;100268.59;;;20.68;83.68
20825;BME280;10573;50.936;6.978;2023-07-29T03:59:28;100296.94;;;20.57;84.29
20825;BME280;10573;50.936;6.978;2023-07-29T04:01:54;100290.44;;;20.44;85.18
20825;BME280;10573;50.936;6.978;2023-07-29T04:04:19;100287.41;;;20.53;84.49
20825;BME280;10573;50.936;6.978;2023-07-29T04:06:45;100297.50;;;20.40;84.85
20825;BME280;10573;50.936;6.978;2023-07-29T04:09:10;100307.84;;;20.52;84.71
20825;BME280;10573;50.936;6.978;2023-07-29T04:11:36;100306.78;;;20.53;84.84
20825;BME280;10573;50.936;6.978;2023-07-29T04:14:01;100308.97;;;20.44;85.18
20825;BME280;10573;50.936;6.978;2023-07-29T04:16:26;100310.44;;;20.47;84.96
20825;BME280;10573;50.936;6.978;2023-07-29T04:18:53;100306.31;;;20.56;85.26
20825;BME280;10573;50.936;6.978;2023-07-29T04:21:19;100301.72;;;20.43;85.93
20825;BME280;10573;50.936;6.978;2023-07-29T04:23:44;100303.03;;;20.40;85.37
20825;BME280;10573;50.936;6.978;2023-07-29T04:26:09;100314.34;;;20.32;86.09
20825;BME280;10573;50.936;6.978;2023-07-29T04:28:35;100319.63;;;20.40;85.57
20825;BME280;10573;50.936;6.978;2023-07-29T04:31:00;100321.31;;;20.41;85.23
20825;BME280;10573;50.936;6.978;2023-07-29T04:33:25;100315.97;;;20.47;85.31
20825;BME280;10573;50.936;6.978;2023-07-29T04:35:51;100305.97;;;20.45;85.23
20825;BME280;10573;50.936;6.978;2023-07-29T04:38:16;100311.84;;;20.56;85.39
20825;BME280;10573;50.936;6.978;2023-07-29T04:40:42;100322.59;;;20.45;85.42
20825;BME280;10573;50.936;6.978;2023-07-29T04:43:07;100334.72;;;20.44;85.19
20825;BME280;10573;50.936;6.978;2023-07-29T04:45:32;100341.75;;;20.40;85.04
20825;BME280;10573;50.936;6.978;2023-07-29T04:47:58;100353.44;;;20.42;85.58
20825;BME280;10573;50.936;6.978;2023-07-29T04:50:24;100358.78;;;20.44;85.54
20825;BME280;10573;50.936;6.978;2023-07-29T04:52:49;100357.91;;;20.43;85.26
20825;BME280;10573;50.936;6.978;2023-07-29T04:55:15;100354.53;;;20.41;85.55
20825;BME280;10573;50.936;6.978;2023-07-29T04:57:40;100350.25;;;20.45;85.26
20825;BME280;10573;50.936;6.978;2023-07-29T05:00:06;100343.75;;;20.65;85.10
20825;BME280;10573;50.936;6.978;2023-07-29T05:02:31;100340.75;;;20.67;85.15
20825;BME280;10573;50.936;6.978;2023-07-29T05:04:57;100343.31;;;20.68;84.75
20825;BME280;10573;50.936;6.978;2023-07-29T05:07:22;100338.66;;;20.62;85.39
20825;BME280;10573;50.936;6.978;2023-07-29T05:09:48;100343.97;;;20.63;84.64
20825;BME280;10573;50.936;6.978;2023-07-29T05:12:13;100341.69;;;20.54;84.84
20825;BME280;10573;50.936;6.978;2023-07-29T05:14:39;100326.97;;;20.60;83.56
20825;BME280;10573;50.936;6.978;2023-07-29T05:17:05;100335.00;;;20.68;84.68
20825;BME280;10573;50.936;6.978;2023-07-29T05:19:30;100338.66;;;20.62;84.16
20825;BME280;10573;50.936;6.978;2023-07-29T05:21:56;100340.13;;;20.71;83.58
20825;BME280;10573;50.936;6.978;2023-07-29T05:24:22;100339.03;;;20.79;84.12
20825;BME280;10573;50.936;6.978;2023-07-29T05:26:48;100329.16;;;20.90;84.01
20825;BME280;10573;50.936;6.978;2023-07-29T05:29:14;100329.25;;;20.76;83.91
20825;BME280;10573;50.936;6.978;2023-07-29T05:31:39;100343.75;;;20.65;84.12
20825;BME280;10573;50.936;6.978;2023-07-29T05:34:04;100346.97;;;20.62;84.49
20825;BME280;10573;50.936;6.978;2023-07-29T05:36:30;100352.75;;;20.54;84.58
20825;BME280;10573;50.936;6.978;2023-07-29T05:38:55;100358.72;;;20.57;84.31
20825;BME280;10573;50.936;6.978;2023-07-29T05:41:21;100365.53;;;20.55;84.60
20825;BME280;10573;50.936;6.978;2023-07-29T05:43:46;100357.88;;;20.50;84.70
20825;BME280;10573;50.936;6.978;2023-07-29T05:46:12;100379.38;;;20.55;84.80
20825;BME280;10573;50.936;6.978;2023-07-29T05:48:37;100372.75;;;20.56;84.42
20825;BME280;10573;50.936;6.978;2023-07-29T05:51:03;100367.22;;;20.56;84.07
20825;BME280;10573;50.936;6.978;2023-07-29T05:53:30;100380.81;;;20.64;83.96
20825;BME280;10573;50.936;6.978;2023-07-29T05:55:56;100383.59;;;20.71;82.95
20825;BME280;10573;50.936;6.978;2023-07-29T05:58:21;100380.81;;;20.64;82.72
20825;BME280;10573;50.936;6.978;2023-07-29T06:00:47;100389.72;;;20.66;82.50
20825;BME280;10573;50.936;6.978;2023-07-29T06:03:12;100388.09;;;20.52;82.68
20825;BME280;10573;50.936;6.978;2023-07-29T06:05:38;100394.84;;;20.69;82.35
20825;BME280;10573;50.936;6.978;2023-07-29T06:08:04;100399.09;;;20.65;82.51
20825;BME280;10573;50.936;6.978;2023-07-29T06:10:29;100402.13;;;20.57;81.36
20825;BME280;10573;50.936;6.978;2023-07-29T06:12:55;100403.81;;;20.58;81.37
20825;BME280;10573;50.936;6.978;2023-07-29T06:15:20;100406.78;;;20.70;81.68
20825;BME280;10573;50.936;6.978;2023-07-29T06:17:48;100409.53;;;20.76;81.79
20825;BME280;10573;50.936;6.978;2023-07-29T06:20:13;100420.09;;;20.86;80.95
20825;BME280;10573;50.936;6.978;2023-07-29T06:22:39;100427.13;;;20.89;79.75
20825;BME280;10573;50.936;6.978;2023-07-29T06:25:04;100422.50;;;20.76;80.08
20825;BME280;10573;50.936;6.978;2023-07-29T06:27:30;100422.03;;;20.86;79.33
20825;BME280;10573;50.936;6.978;2023-07-29T06:29:55;100426.66;;;20.92;79.27
20825;BME280;10573;50.936;6.978;2023-07-29T06:32:20;100436.34;;;20.76;79.54
20825;BME280;10573;50.936;6.978;2023-07-29T06:34:46;100445.88;;;20.87;79.17
20825;BME280;10573;50.936;6.978;2023-07-29T06:37:11;100439.78;;;20.71;79.49
20825;BME280;10573;50.936;6.978;2023-07-29T06:39:37;100435.44;;;20.89;78.12
20825;BME280;10573;50.936;6.978;2023-07-29T06:42:02;100442.00;;;20.94;77.97
20825;BME280;10573;50.936;6.978;2023-07-29T06:44:28;100433.03;;;20.99;77.57
20825;BME280;10573;50.936;6.978;2023-07-29T06:46:53;100425.59;;;20.93;77.47
20825;BME280;10573;50.936;6.978;2023-07-29T06:49:19;100426.66;;;20.92;76.48
20825;BME280;10573;50.936;6.978;2023-07-29T06:51:44;100424.53;;;20.94;76.98
20825;BME280;10573;50.936;6.978;2023-07-29T06:54:09;100428.38;;;20.93;76.27
20825;BME280;10573;50.936;6.978;2023-07-29T06:56:35;100432.41;;;20.97;76.43
20825;BME280;10573;50.936;6.978;2023-07-29T06:59:00;100428.22;;;21.20;76.86
20825;BME280;10573;50.936;6.978;2023-07-29T07:01:26;100431.03;;;21.13;76.01
20825;BME280;10573;50.936;6.978;2023-07-29T07:03:51;100426.88;;;21.29;74.81
20825;BME280;10573;50.936;6.978;2023-07-29T07:06:20;100427.41;;;21.38;74.28
20825;BME280;10573;50.936;6.978;2023-07-29T07:08:46;100410.78;;;21.38;74.01
20825;BME280;10573;50.936;6.978;2023-07-29T07:11:11;100418.97;;;21.58;73.34
20825;BME280;10573;50.936;6.978;2023-07-29T07:13:36;100424.97;;;21.55;72.79
20825;BME280;10573;50.936;6.978;2023-07-29T07:16:02;100419.19;;;21.82;72.60
20825;BME280;10573;50.936;6.978;2023-07-29T07:18:27;100422.56;;;21.65;71.27
20825;BME280;10573;50.936;6.978;2023-07-29T07:20:53;100433.38;;;21.73;71.69
20825;BME280;10573;50.936;6.978;2023-07-29T07:23:19;100429.16;;;21.64;71.60
20825;BME280;10573;50.936;6.978;2023-07-29T07:25:45;100434.03;;;21.69;71.18
20825;BME280;10573;50.936;6.978;2023-07-29T07:28:10;100448.16;;;21.35;70.77
20825;BME280;10573;50.936;6.978;2023-07-29T07:30:39;100440.25;;;21.32;71.47
20825;BME280;10573;50.936;6.978;2023-07-29T07:33:06;100437.22;;;21.40;71.32
20825;BME280;10573;50.936;6.978;2023-07-29T07:35:32;100441.22;;;21.44;71.29
20825;BME280;10573;50.936;6.978;2023-07-29T07:37:57;100431.53;;;21.35;70.76
20825;BME280;10573;50.936;6.978;2023-07-29T07:40:24;100438.75;;;21.36;70.68
20825;BME280;10573;50.936;6.978;2023-07-29T07:42:49;100440.63;;;21.42;70.12
20825;BME280;10573;50.936;6.978;2023-07-29T07:45:14;100436.25;;;21.60;69.61
20825;BME280;10573;50.936;6.978;2023-07-29T07:47:40;100443.03;;;21.89;69.32
20825;BME280;10573;50.936;6.978;2023-07-29T07:50:05;100444.94;;;21.89;69.01
20825;BME280;10573;50.936;6.978;2023-07-29T07:52:31;100452.81;;;21.92;69.93
20825;BME280;10573;50.936;6.978;2023-07-29T07:54:56;100454.81;;;22.03;69.03
20825;BME280;10573;50.936;6.978;2023-07-29T07:57:21;100438.50;;;21.70;67.56
20825;BME280;10573;50.936;6.978;2023-07-29T07:59:47;100446.88;;;21.63;67.87
20825;BME280;10573;50.936;6.978;2023-07-29T08:02:12;100446.88;;;21.63;68.23
20825;BME280;10573;50.936;6.978;2023-07-29T08:04:38;100441.72;;;21.92;68.54
20825;BME280;10573;50.936;6.978;2023-07-29T08:07:03;100439.06;;;22.04;66.46
20825;BME280;10573;50.936;6.978;2023-07-29T08:09:29;100434.56;;;22.03;66.55
20825;BME280;10573;50.936;6.978;2023-07-29T08:11:54;100439.38;;;21.89;66.02
20825;BME280;10573;50.936;6.978;2023-07-29T08:14:19;100433.41;;;21.92;66.23
20825;BME280;10573;50.936;6.978;2023-07-29T08:16:45;100436.28;;;22.22;64.92
20825;BME280;10573;50.936;6.978;2023-07-29T08:19:10;100426.63;;;22.25;65.11
20825;BME280;10573;50.936;6.978;2023-07-29T08:21:36;100431.47;;;22.36;64.41
20825;BME280;10573;50.936;6.978;2023-07-29T08:24:01;100442.97;;;22.33;64.29
20825;BME280;10573;50.936;6.978;2023-07-29T08:26:27;100452.88;;;22.66;63.82
20825;BME280;10573;50.936;6.978;2023-07-29T08:28:52;100450.50;;;22.51;63.96
20825;BME280;10573;50.936;6.978;2023-07-29T08:31:17;100453.78;;;22.60;62.38
20825;BME280;10573;50.936;6.978;2023-07-29T08:33:43;100458.91;;;22.63;63.56
20825;BME280;10573;50.936;6.978;2023-07-29T08:36:08;100444.59;;;23.08;62.16
20825;BME280;10573;50.936;6.978;2023-07-29T08:38:33;100445.44;;;22.78;61.91
20825;BME280;10573;50.936;6.978;2023-07-29T08:43:31;100441.94;;;22.71;60.99
20825;BME280;10573;50.936;6.978;2023-07-29T08:45:58;100441.78;;;22.66;61.50
20825;BME280;10573;50.936;6.978;2023-07-29T08:48:33;100454.09;;;22.70;62.08
20825;BME280;10573;50.936;6.978;2023-07-29T08:51:03;100447.50;;;22.53;60.80
20825;BME280;10573;50.936;6.978;2023-07-29T08:53:29;100470.13;;;22.31;61.75
20825;BME280;10573;50.936;6.978;2023-07-29T08:55:54;100464.69;;;22.43;61.23
20825;BME280;10573;50.936;6.978;2023-07-29T08:58:21;100452.66;;;22.49;60.48
20825;BME280;10573;50.936;6.978;2023-07-29T09:00:48;100467.25;;;22.44;60.31
20825;BME280;10573;50.936;6.978;2023-07-29T09:03:13;100470.72;;;22.33;60.11
20825;BME280;10573;50.936;6.978;2023-07-29T09:05:39;100471.41;;;22.35;59.30
20825;BME280;10573;50.936;6.978;2023-07-29T09:08:04;100461.69;;;22.44;59.54
20825;BME280;10573;50.936;6.978;2023-07-29T09:10:30;100468.53;;;22.42;58.98
20825;BME280;10573;50.936;6.978;2023-07-29T09:12:59;100462.44;;;22.52;59.48
20825;BME280;10573;50.936;6.978;2023-07-29T09:15:32;100464.78;;;22.36;59.78
20825;BME280;10573;50.936;6.978;2023-07-29T09:17:58;100464.16;;;22.53;60.41
20825;BME280;10573;50.936;6.978;2023-07-29T09:20:27;100465.13;;;22.40;59.46
20825;BME280;10573;50.936;6.978;2023-07-29T09:22:58;100467.81;;;22.28;60.33
20825;BME280;10573;50.936;6.978;2023-07-29T09:25:29;100470.84;;;22.45;60.57
20825;BME280;10573;50.936;6.978;2023-07-29T09:28:01;100463.38;;;22.45;60.57
20825;BME280;10573;50.936;6.978;2023-07-29T09:30:32;100465.69;;;22.49;60.25
20825;BME280;10573;50.936;6.978;2023-07-29T09:32:58;100464.91;;;22.60;61.25
20825;BME280;10573;50.936;6.978;2023-07-29T09:35:27;100471.66;;;22.27;61.46
20825;BME280;10573;50.936;6.978;2023-07-29T09:37:53;100471.28;;;22.23;62.85
20825;BME280;10573;50.936;6.978;2023-07-29T09:40:19;100480.47;;;22.24;63.03
20825;BME280;10573;50.936;6.978;2023-07-29T09:42:51;100488.31;;;22.27;63.75
20825;BME280;10573;50.936;6.978;2023-07-29T09:45:27;100484.47;;;22.28;64.06
20825;BME280;10573;50.936;6.978;2023-07-29T09:47:53;100477.22;;;22.27;63.98
20825;BME280;10573;50.936;6.978;2023-07-29T09:50:26;100482.53;;;22.28;63.18
20825;BME280;10573;50.936;6.978;2023-07-29T09:52:53;100475.25;;;22.53;63.00
20825;BME280;10573;50.936;6.978;2023-07-29T09:55:22;100466.75;;;22.66;64.05
20825;BME280;10573;50.936;6.978;2023-07-29T09:57:56;100462.13;;;23.27;62.17
20825;BME280;10573;50.936;6.978;2023-07-29T10:00:23;100466.38;;;23.42;60.34
20825;BME280;10573;50.936;6.978;2023-07-29T10:02:48;100468.09;;;23.97;58.91
20825;BME280;10573;50.936;6.978;2023-07-29T10:05:15;100476.53;;;24.90;56.88
20825;BME280;10573;50.936;6.978;2023-07-29T10:07:40;100476.78;;;25.18;52.90
20825;BME280;10573;50.936;6.978;2023-07-29T10:10:07;100475.22;;;24.93;54.24
20825;BME280;10573;50.936;6.978;2023-07-29T10:12:33;100480.56;;;24.83;55.26
20825;BME280;10573;50.936;6.978;2023-07-29T10:15:00;100478.38;;;24.85;54.32
20825;BME280;10573;50.936;6.978;2023-07-29T10:17:26;100477.22;;;24.69;55.03
20825;BME280;10573;50.936;6.978;2023-07-29T10:19:53;100474.56;;;25.03;53.67
20825;BME280;10573;50.936;6.978;2023-07-29T10:22:20;100474.63;;;25.20;52.40
20825;BME280;10573;50.936;6.978;2023-07-29T10:24:47;100487.00;;;25.12;52.68
20825;BME280;10573;50.936;6.978;2023-07-29T10:27:18;100484.50;;;24.34;54.58
20825;BME280;10573;50.936;6.978;2023-07-29T10:29:45;100489.78;;;23.76;56.21
20825;BME280;10573;50.936;6.978;2023-07-29T10:32:11;100493.00;;;23.50;56.89
20825;BME280;10573;50.936;6.978;2023-07-29T10:34:37;100493.72;;;23.15;57.43
20825;BME280;10573;50.936;6.978;2023-07-29T10:37:04;100484.88;;;22.87;58.23
20825;BME280;10573;50.936;6.978;2023-07-29T10:39:40;100490.53;;;22.81;58.76
20825;BME280;10573;50.936;6.978;2023-07-29T10:42:06;100486.84;;;22.68;59.11
20825;BME280;10573;50.936;6.978;2023-07-29T10:47:20;100495.75;;;22.70;60.46
20825;BME280;10573;50.936;6.978;2023-07-29T10:49:48;100502.09;;;22.59;61.61
20825;BME280;10573;50.936;6.978;2023-07-29T10:52:15;100498.09;;;22.55;62.04
20825;BME280;10573;50.936;6.978;2023-07-29T10:54:46;100491.00;;;22.59;63.09
20825;BME280;10573;50.936;6.978;2023-07-29T10:57:18;100480.47;;;22.79;63.30
20825;BME280;10573;50.936;6.978;2023-07-29T10:59:56;100490.44;;;22.87;62.78
20825;BME280;10573;50.936;6.978;2023-07-29T11:02:28;100488.06;;;22.54;61.45
20825;BME280;10573;50.936;6.978;2023-07-29T11:04:54;100484.81;;;22.75;62.05
20825;BME280;10573;50.936;6.978;2023-07-29T11:07:21;100479.09;;;22.89;61.80
20825;BME280;10573;50.936;6.978;2023-07-29T11:12:48;100480.97;;;22.76;62.52
20825;BME280;10573;50.936;6.978;2023-07-29T11:15:21;100484.25;;;22.85;64.09
20825;BME280;10573;50.936;6.978;2023-07-29T11:17:55;100484.56;;;22.58;63.13
20825;BME280;10573;50.936;6.978;2023-07-29T11:20:28;100484.66;;;22.52;64.40
20825;BME280;10573;50.936;6.978;2023-07-29T11:22:55;100489.09;;;22.34;64.77
20825;BME280;10573;50.936;6.978;2023-07-29T11:25:23;100486.66;;;22.44;64.59
20825;BME280;10573;50.936;6.978;2023-07-29T11:27:50;100481.22;;;22.31;64.53
20825;BME280;10573;50.936;6.978;2023-07-29T11:30:16;100470.53;;;22.72;64.33
20825;BME280;10573;50.936;6.978;2023-07-29T11:32:43;100474.09;;;23.09;64.38
20825;BME280;10573;50.936;6.978;2023-07-29T11:35:17;100480.44;;;23.59;62.20
20825;BME280;10573;50.936;6.978;2023-07-29T11:37:46;100471.28;;;23.70;61.08
20825;BME280;10573;50.936;6.978;2023-07-29T11:40:15;100469.25;;;24.13;60.11
20825;BME280;10573;50.936;6.978;2023-07-29T11:42:41;100474.00;;;24.01;58.28
20825;BME280;10573;50.936;6.978;2023-07-29T11:45:06;100454.78;;;24.75;57.33
20825;BME280;10573;50.936;6.978;2023-07-29T11:47:33;100462.34;;;25.50;56.35
20825;BME280;10573;50.936;6.978;2023-07-29T11:50:02;100462.66;;;25.36;55.97
20825;BME280;10573;50.936;6.978;2023-07-29T11:52:28;100467.72;;;25.39;55.60
20825;BME280;10573;50.936;6.978;2023-07-29T11:54:54;100464.88;;;26.02;53.49
20825;BME280;10573;50.936;6.978;2023-07-29T11:57:19;100454.09;;;26.67;51.72
20825;BME280;10573;50.936;6.978;2023-07-29T11:59:45;100453.06;;;26.73;51.45
20825;BME280;10573;50.936;6.978;2023-07-29T12:02:12;100447.59;;;26.84;49.99
20825;BME280;10573;50.936;6.978;2023-07-29T12:04:38;100453.25;;;26.05;50.83
20825;BME280;10573;50.936;6.978;2023-07-29T12:07:04;100450.69;;;25.53;51.54
20825;BME280;10573;50.936;6.978;2023-07-29T12:09:30;100443.91;;;25.49;50.79
20825;BME280;10573;50.936;6.978;2023-07-29T12:11:55;100445.38;;;25.85;51.89
20825;BME280;10573;50.936;6.978;2023-07-29T12:14:21;100445.53;;;26.12;51.99
20825;BME280;10573;50.936;6.978;2023-07-29T12:16:50;100436.66;;;26.60;51.46
20825;BME280;10573;50.936;6.978;2023-07-29T12:19:17;100430.66;;;27.45;48.63
20825;BME280;10573;50.936;6.978;2023-07-29T12:21:43;100427.28;;;28.71;46.23
20825;BME280;10573;50.936;6.978;2023-07-29T12:24:08;100408.78;;;28.80;44.32
20825;BME280;10573;50.936;6.978;2023-07-29T12:26:35;100419.81;;;29.13;43.41
20825;BME280;10573;50.936;6.978;2023-07-29T12:29:10;100427.13;;;29.24;43.67
20825;BME280;10573;50.936;6.978;2023-07-29T12:31:37;100428.78;;;29.05;44.58
20825;BME280;10573;50.936;6.978;2023-07-29T12:34:02;100418.47;;;30.03;42.94
20825;BME280;10573;50.936;6.978;2023-07-29T12:36:43;100395.31;;;30.32;41.58
20825;BME280;10573;50.936;6.978;2023-07-29T12:39:16;100391.53;;;31.52;40.19
20825;BME280;10573;50.936;6.978;2023-07-29T12:41:41;100394.34;;;31.18;39.63
20825;BME280;10573;50.936;6.978;2023-07-29T12:44:06;100389.03;;;30.66;38.98
20825;BME280;10573;50.936;6.978;2023-07-29T12:46:32;100390.75;;;31.12;38.98
20825;BME280;10573;50.936;6.978;2023-07-29T12:48:57;100398.09;;;31.08;38.81
20825;BME280;10573;50.936;6.978;2023-07-29T12:51:22;100404.34;;;30.24;41.01
20825;BME280;10573;50.936;6.978;2023-07-29T12:53:47;100414.69;;;28.79;42.80
20825;BME280;10573;50.936;6.978;2023-07-29T12:56:13;100408.03;;;27.89;44.53
20825;BME280;10573;50.936;6.978;2023-07-29T12:58:38;100406.84;;;27.42;46.31